Terminal Aerodrome Forecast
Issued by NWS Charleston, WV

Current Version | Previous Version | Text Only | Print | Product List | Glossary Off
Versions: 1 2 3 4 5 6 7 8 9 10 11 12 13 14 15 16 17 18 19 20 21 22 23 24

000
FTUS41 KRLX 220900 AAA
TAFPKB
TAF AMD
KPKB 220930Z 2210/2306 25006KT P6SM -SHRA OVC080
     FM221200 26006KT P6SM OVC060
     FM221600 27009KT 5SM SHRA OVC040
     FM221700 28010G16KT P6SM BKN035
     FM221900 30012G19KT P6SM BKN035
     FM222100 30008KT P6SM BKN035=

USA.gov is the U.S. government's official web portal to all federal, state and local government web resources and services.